Time;durP1;ratioP1;P1;durP2;ratioP2;P2;SDS_P1;SDS_P2;PMS_P1;PMS_P2;Temp;Humidity;BMP_temperature;BMP_pressure;BME280_temperature;BME280_humidity;BME280_pressure;Samples;Min_cycle;Max_cycle;Signal;HPM_P1;HPM_P2
2023/06/10 00:01:43;;;;;;;866.28;808.13;;;14.90;68.90;;;;;;5034776;28;20121;-90
2023/06/10 00:04:08;;;;;;;882.28;822.40;;;14.80;69.60;;;;;;5039898;28;20025;-90
2023/06/10 00:06:37;;;;;;;858.38;801.88;;;14.70;69.10;;;;;;5039529;28;20362;-90
2023/06/10 00:09:04;;;;;;;847.20;792.55;;;14.50;70.10;;;;;;5035025;28;20086;-90
2023/06/10 00:11:33;;;;;;;851.08;797.72;;;14.30;71.10;;;;;;5034581;28;20037;-89
2023/06/10 00:14:00;;;;;;;809.75;758.75;;;14.30;71.20;;;;;;5034620;28;20310;-90
2023/06/10 00:16:25;;;;;;;796.40;747.47;;;14.30;71.00;;;;;;5038284;28;20029;-90
2023/06/10 00:18:51;;;;;;;761.95;716.25;;;14.20;71.60;;;;;;5039302;28;20625;-90
2023/06/10 00:21:18;;;;;;;787.38;739.50;;;14.10;71.50;;;;;;5032428;28;20053;-91
2023/06/10 00:23:44;;;;;;;741.03;699.72;;;14.10;71.80;;;;;;5038359;28;20029;-91
2023/06/10 00:26:10;;;;;;;681.35;645.17;;;14.20;71.60;;;;;;5034816;28;20052;-91
2023/06/10 00:28:36;;;;;;;659.95;625.53;;;14.20;71.50;;;;;;5037263;28;20029;-91
2023/06/10 00:31:02;;;;;;;672.63;637.20;;;14.30;71.20;;;;;;5035721;28;20040;-90
2023/06/10 00:33:28;;;;;;;662.90;628.95;;;14.30;71.30;;;;;;5032318;28;20041;-90
2023/06/10 00:35:53;;;;;;;651.40;617.95;;;14.20;71.30;;;;;;5019880;28;20037;-93
2023/06/10 00:38:19;;;;;;;577.75;549.78;;;14.20;71.40;;;;;;5022365;28;20511;-91
2023/06/10 00:40:45;;;;;;;631.22;599.83;;;14.20;71.80;;;;;;5031330;28;20038;-91
2023/06/10 00:43:10;;;;;;;619.25;588.47;;;14.20;71.80;;;;;;5004586;28;20025;-90
2023/06/10 00:45:36;;;;;;;642.92;610.60;;;14.20;71.80;;;;;;5035877;28;20057;-91
2023/06/10 00:48:03;;;;;;;623.80;591.10;;;14.10;71.80;;;;;;4998257;28;20120;-90
2023/06/10 00:50:30;;;;;;;666.92;633.58;;;14.30;72.20;;;;;;5018827;28;20496;-90
2023/06/10 00:52:57;;;;;;;580.80;552.65;;;14.20;72.40;;;;;;5016211;28;20033;-89
2023/06/10 00:55:24;;;;;;;623.80;592.38;;;14.20;72.40;;;;;;5019150;28;20041;-90
2023/06/10 00:57:51;;;;;;;606.20;575.65;;;14.30;72.20;;;;;;5037773;28;20033;-90
2023/06/10 01:00:17;;;;;;;570.50;543.55;;;14.40;71.60;;;;;;5037516;28;20026;-90
2023/06/10 01:02:43;;;;;;;624.28;592.20;;;14.40;72.10;;;;;;5039510;28;20030;-90
2023/06/10 01:05:09;;;;;;;546.25;520.20;;;14.30;72.90;;;;;;5033849;28;20040;-90
2023/06/10 01:07:56;;;;;;;600.53;570.05;;;14.30;73.10;;;;;;5037120;28;20239;-90
2023/06/10 01:10:40;;;;;;;565.83;538.45;;;14.20;73.50;;;;;;5034603;28;20064;-90
2023/06/10 01:13:11;;;;;;;490.75;468.73;;;14.40;72.80;;;;;;5033612;28;20026;-90
2023/06/10 01:15:37;;;;;;;;;;;14.40;73.20;;;;;;5041639;28;20492;-90
2023/06/10 01:18:08;;;;;;;491.45;469.58;;;14.30;73.30;;;;;;5034729;28;20288;-90
2023/06/10 01:20:36;;;;;;;487.65;466.50;;;14.20;73.80;;;;;;5032986;28;20091;-91
2023/06/10 01:23:02;;;;;;;506.40;483.52;;;14.30;73.60;;;;;;5032599;28;20034;-92
2023/06/10 01:25:32;;;;;;;560.80;534.38;;;14.30;73.70;;;;;;5028747;28;20033;-90
2023/06/10 01:28:16;;;;;;;575.40;548.13;;;14.30;73.70;;;;;;5036449;28;20109;-90
2023/06/10 01:31:33;;;;;;;547.92;523.03;;;14.20;73.90;;;;;;5032074;28;20489;-90
2023/06/10 01:34:00;;;;;;;471.35;450.58;;;14.20;74.60;;;;;;5027939;28;20041;-91
2023/06/10 01:36:26;;;;;;;508.92;485.65;;;14.20;75.00;;;;;;5035928;28;20049;-91
2023/06/10 01:38:53;;;;;;;554.65;529.30;;;14.10;75.70;;;;;;5032476;28;20485;-90
2023/06/10 01:41:21;;;;;;;554.42;528.67;;;14.00;75.50;;;;;;5033328;28;20034;-90
2023/06/10 01:43:47;;;;;;;565.47;539.28;;;14.10;75.70;;;;;;5016377;28;20025;-91
2023/06/10 01:46:14;;;;;;;568.75;542.15;;;14.10;75.50;;;;;;5034697;28;20097;-90
2023/06/10 01:48:40;;;;;;;547.58;521.38;;;14.00;76.10;;;;;;5036337;28;20043;-90
2023/06/10 01:51:06;;;;;;;570.45;543.15;;;14.00;76.30;;;;;;5036756;28;20041;-90
2023/06/10 01:53:32;;;;;;;552.80;526.63;;;14.00;77.10;;;;;;5035094;28;20044;-91
2023/06/10 01:55:57;;;;;;;588.22;560.47;;;14.00;76.40;;;;;;5038136;28;20044;-91
2023/06/10 01:58:23;;;;;;;455.95;435.15;;;14.00;76.70;;;;;;5031301;28;20037;-90
2023/06/10 02:00:48;;;;;;;596.70;567.35;;;14.10;76.50;;;;;;5034486;28;20029;-90
2023/06/10 02:03:14;;;;;;;547.67;521.72;;;14.00;76.50;;;;;;5024095;28;20036;-91
2023/06/10 02:05:40;;;;;;;564.97;539.10;;;14.00;76.50;;;;;;5038477;28;20103;-90
2023/06/10 02:08:06;;;;;;;569.40;541.15;;;14.00;76.80;;;;;;5039146;28;20428;-91
2023/06/10 02:10:31;;;;;;;586.75;557.72;;;13.90;77.50;;;;;;5031585;28;20671;-90
2023/06/10 02:12:57;;;;;;;620.80;589.83;;;13.90;78.00;;;;;;5033380;28;20025;-91
2023/06/10 02:15:23;;;;;;;576.45;547.63;;;13.70;78.20;;;;;;5032548;28;20022;-90
2023/06/10 02:17:51;;;;;;;485.60;463.25;;;13.80;78.40;;;;;;5035170;28;20044;-91
2023/06/10 02:20:17;;;;;;;595.45;564.70;;;13.80;78.50;;;;;;5043236;28;20049;-92
2023/06/10 02:22:42;;;;;;;570.67;542.78;;;13.70;78.50;;;;;;5034692;28;20025;-90
2023/06/10 02:25:08;;;;;;;564.58;536.95;;;13.70;78.70;;;;;;5017515;28;20488;-90
2023/06/10 02:27:34;;;;;;;555.08;528.08;;;13.70;78.40;;;;;;5045371;28;20041;-90
2023/06/10 02:30:00;;;;;;;541.38;515.10;;;13.70;78.80;;;;;;5034689;28;20041;-90
2023/06/10 02:32:25;;;;;;;503.05;478.55;;;13.60;78.90;;;;;;5035200;28;20716;-89
2023/06/10 02:34:51;;;;;;;548.40;521.88;;;13.60;79.30;;;;;;5037174;28;20037;-89
2023/06/10 02:37:17;;;;;;;568.80;540.72;;;13.50;79.70;;;;;;5017878;28;20092;-90
2023/06/10 02:39:43;;;;;;;571.33;543.25;;;13.50;80.00;;;;;;5040722;28;20029;-91
2023/06/10 02:42:08;;;;;;;595.53;565.97;;;13.50;80.10;;;;;;5035472;28;20540;-90
2023/06/10 02:44:34;;;;;;;378.25;360.63;;;13.50;80.50;;;;;;5041047;28;20146;-89
2023/06/10 02:47:00;;;;;;;546.33;519.85;;;13.60;80.10;;;;;;5036749;28;20523;-89
2023/06/10 02:49:28;;;;;;;558.50;532.00;;;13.50;80.30;;;;;;5034507;28;20033;-90
2023/06/10 02:51:53;;;;;;;515.67;491.65;;;13.50;80.40;;;;;;5044136;28;20090;-89
2023/06/10 02:54:23;;;;;;;542.92;516.83;;;13.40;80.60;;;;;;5041050;28;20420;-90
2023/06/10 02:56:49;;;;;;;444.15;424.52;;;13.50;79.90;;;;;;5042600;28;20029;-91
2023/06/10 02:59:15;;;;;;;467.52;446.48;;;13.50;80.50;;;;;;5040911;28;20436;-90
2023/06/10 03:01:41;;;;;;;436.00;417.10;;;13.50;80.60;;;;;;5036026;28;20026;-91
2023/06/10 03:04:07;;;;;;;423.23;405.08;;;13.50;80.70;;;;;;5037641;28;20029;-91
2023/06/10 03:06:33;;;;;;;537.45;511.83;;;13.40;80.60;;;;;;5040642;28;20043;-92
2023/06/10 03:09:04;;;;;;;501.45;477.88;;;13.40;81.60;;;;;;5034037;28;20832;-92
2023/06/10 03:11:30;;;;;;;414.33;395.98;;;13.30;81.60;;;;;;5039761;28;20037;-92
2023/06/10 03:13:57;;;;;;;450.90;430.70;;;13.40;81.80;;;;;;5037176;28;20789;-91
2023/06/10 03:16:25;;;;;;;477.02;455.40;;;13.40;81.50;;;;;;5051920;28;20051;-91
2023/06/10 03:18:50;;;;;;;485.75;463.25;;;13.40;81.80;;;;;;5038313;28;20072;-91
2023/06/10 03:21:16;;;;;;;505.30;481.73;;;13.30;82.00;;;;;;5033555;28;20045;-91
2023/06/10 03:23:42;;;;;;;505.48;481.23;;;13.40;82.10;;;;;;5035392;28;20126;-90
2023/06/10 03:26:09;;;;;;;521.28;496.60;;;13.30;82.70;;;;;;5019270;28;20029;-90
2023/06/10 03:28:35;;;;;;;491.70;469.63;;;13.30;82.30;;;;;;5030306;28;20053;-91
2023/06/10 03:31:01;;;;;;;453.10;432.77;;;13.30;82.70;;;;;;5042068;28;20512;-91
2023/06/10 03:33:26;;;;;;;452.05;432.15;;;13.40;82.60;;;;;;5039915;28;20029;-92
2023/06/10 03:35:52;;;;;;;392.48;375.98;;;13.30;83.20;;;;;;5017922;28;20550;-90
2023/06/10 03:38:17;;;;;;;519.47;494.90;;;13.30;83.50;;;;;;5023438;28;20026;-90
2023/06/10 03:40:43;;;;;;;366.25;349.70;;;13.30;83.20;;;;;;5031448;28;20508;-91
2023/06/10 03:43:09;;;;;;;492.98;470.88;;;13.40;83.40;;;;;;5019163;28;20034;-92
2023/06/10 03:45:35;;;;;;;524.60;499.65;;;13.40;83.10;;;;;;5019434;28;20037;-90
2023/06/10 03:48:01;;;;;;;494.10;471.88;;;13.40;83.40;;;;;;5036172;28;20037;-91
2023/06/10 03:50:27;;;;;;;375.25;358.52;;;13.50;83.40;;;;;;5042045;28;20052;-91
2023/06/10 03:52:53;;;;;;;293.17;281.27;;;13.50;83.60;;;;;;5036922;28;20030;-93
2023/06/10 03:55:21;;;;;;;431.52;412.08;;;13.50;83.50;;;;;;5036845;28;20033;-91
2023/06/10 03:57:48;;;;;;;490.40;467.55;;;13.60;83.30;;;;;;5037862;28;20029;-91
2023/06/10 04:00:15;;;;;;;292.85;279.77;;;13.60;83.70;;;;;;5031510;28;20756;-90
2023/06/10 04:02:48;;;;;;;461.88;441.33;;;13.60;83.90;;;;;;5042195;28;20041;-91
2023/06/10 04:05:15;;;;;;;417.48;398.60;;;13.60;83.80;;;;;;5020779;28;20053;-92
2023/06/10 04:07:43;;;;;;;401.80;384.05;;;13.60;83.90;;;;;;5035498;28;20501;-91
2023/06/10 04:10:10;;;;;;;374.77;358.00;;;13.70;83.90;;;;;;5038873;28;20124;-91
2023/06/10 04:12:36;;;;;;;550.10;524.38;;;13.70;83.70;;;;;;5034169;28;20030;-93
2023/06/10 04:15:04;;;;;;;432.20;413.15;;;13.70;83.60;;;;;;5036963;28;20037;-92
2023/06/10 04:17:30;;;;;;;316.38;301.92;;;13.80;83.70;;;;;;5026769;28;20030;-91
2023/06/10 04:19:55;;;;;;;314.20;300.65;;;13.80;83.30;;;;;;5038702;28;20082;-90
2023/06/10 04:22:22;;;;;;;383.13;366.67;;;13.90;83.10;;;;;;5041813;28;20022;-90
2023/06/10 04:24:48;;;;;;;252.30;241.63;;;13.90;82.90;;;;;;5038779;28;20025;-90
2023/06/10 04:27:14;;;;;;;312.35;299.10;;;14.00;82.90;;;;;;5027317;28;20441;-90
2023/06/10 04:29:40;;;;;;;397.10;379.00;;;14.00;82.80;;;;;;5044396;28;20036;-90
2023/06/10 04:32:06;;;;;;;374.08;357.70;;;14.00;82.70;;;;;;5051815;28;20034;-91
2023/06/10 04:34:34;;;;;;;387.27;369.60;;;14.00;83.30;;;;;;5062396;28;20033;-90
2023/06/10 04:37:00;;;;;;;293.95;281.83;;;14.00;83.00;;;;;;5059187;28;20010;-91
2023/06/10 04:39:25;;;;;;;271.73;259.98;;;14.10;82.70;;;;;;5052075;28;20021;-90
2023/06/10 04:41:51;;;;;;;326.55;312.00;;;14.10;82.70;;;;;;5044571;28;20075;-90
2023/06/10 04:44:18;;;;;;;312.45;298.60;;;14.20;82.50;;;;;;5045730;28;20040;-89
2023/06/10 04:46:44;;;;;;;318.65;303.90;;;14.20;82.30;;;;;;5062827;28;20024;-90
2023/06/10 04:49:10;;;;;;;313.13;299.42;;;14.20;82.70;;;;;;5051176;28;20046;-91
2023/06/10 04:51:35;;;;;;;298.63;285.15;;;14.30;82.80;;;;;;5064525;28;20564;-89
2023/06/10 04:54:03;;;;;;;317.27;303.40;;;14.40;82.10;;;;;;5065935;28;20047;-90
2023/06/10 04:56:30;;;;;;;166.77;159.98;;;14.40;82.00;;;;;;5057143;28;20030;-91
2023/06/10 04:58:56;;;;;;;378.23;360.55;;;14.50;81.80;;;;;;5060975;28;20029;-89
2023/06/10 05:01:22;;;;;;;288.58;275.48;;;14.50;82.00;;;;;;5070411;28;20021;-90
2023/06/10 05:03:48;;;;;;;356.33;340.27;;;14.50;82.40;;;;;;5066776;28;20041;-89
2023/06/10 05:06:13;;;;;;;324.30;310.35;;;14.50;82.40;;;;;;5062846;28;20041;-90
2023/06/10 05:08:39;;;;;;;248.95;238.70;;;14.60;81.70;;;;;;5045963;28;20017;-90
2023/06/10 05:11:06;;;;;;;320.27;306.38;;;14.70;81.80;;;;;;5055480;28;20461;-90
2023/06/10 05:13:31;;;;;;;267.15;256.15;;;14.80;81.40;;;;;;5044438;28;20116;-89
2023/06/10 05:15:57;;;;;;;257.00;245.95;;;14.90;80.80;;;;;;5040199;28;20101;-91
2023/06/10 05:18:23;;;;;;;294.67;281.85;;;14.90;80.70;;;;;;5034772;28;20507;-90
2023/06/10 05:20:49;;;;;;;292.10;277.60;;;15.00;80.30;;;;;;5015528;28;20417;-90
2023/06/10 05:23:14;;;;;;;242.30;232.07;;;15.00;80.50;;;;;;5035394;28;20033;-90
2023/06/10 05:25:41;;;;;;;267.00;255.55;;;15.10;80.90;;;;;;5043862;28;20535;-89
2023/06/10 05:28:09;;;;;;;238.93;228.90;;;15.20;80.50;;;;;;5036184;28;20036;-90
2023/06/10 05:30:35;;;;;;;318.08;302.98;;;15.20;80.80;;;;;;5040817;28;20030;-89
2023/06/10 05:33:01;;;;;;;232.50;223.10;;;15.30;81.60;;;;;;5051627;28;20475;-89
2023/06/10 05:35:27;;;;;;;242.35;232.43;;;15.30;80.40;;;;;;5051824;28;20523;-89
2023/06/10 05:37:52;;;;;;;257.92;247.00;;;15.40;80.30;;;;;;5016630;28;20048;-90
2023/06/10 05:40:18;;;;;;;232.93;223.13;;;15.50;80.80;;;;;;5034549;28;20033;-89
2023/06/10 05:42:44;;;;;;;227.65;218.75;;;15.50;79.70;;;;;;5032821;28;20499;-90
2023/06/10 05:45:10;;;;;;;288.20;274.98;;;15.60;79.80;;;;;;5036456;28;20037;-90
2023/06/10 05:47:36;;;;;;;242.50;232.68;;;15.80;80.10;;;;;;5033539;28;20036;-89
2023/06/10 05:50:02;;;;;;;251.02;240.55;;;15.90;79.10;;;;;;5031344;28;20116;-90
2023/06/10 05:52:27;;;;;;;204.88;196.27;;;16.00;78.70;;;;;;5022437;28;20033;-90
2023/06/10 05:54:54;;;;;;;270.17;258.65;;;15.90;78.40;;;;;;5016866;28;20037;-89
2023/06/10 05:57:20;;;;;;;244.40;234.48;;;16.00;79.30;;;;;;5022380;28;20060;-90
2023/06/10 05:59:46;;;;;;;261.58;250.68;;;16.20;78.90;;;;;;5040140;28;20034;-89
2023/06/10 06:02:11;;;;;;;274.88;263.38;;;16.20;78.90;;;;;;5019381;28;20130;-89
2023/06/10 06:04:37;;;;;;;251.65;241.43;;;16.30;78.50;;;;;;5044641;28;20553;-89
2023/06/10 06:07:03;;;;;;;252.60;241.95;;;16.40;77.90;;;;;;5041293;28;20040;-89
2023/06/10 06:09:29;;;;;;;282.80;270.58;;;16.50;78.50;;;;;;5034951;28;20030;-90
2023/06/10 06:11:55;;;;;;;279.90;268.55;;;16.50;77.60;;;;;;5026642;28;20554;-89
2023/06/10 06:14:20;;;;;;;270.20;259.05;;;16.60;77.30;;;;;;5036066;28;20034;-90
2023/06/10 06:16:46;;;;;;;219.88;210.77;;;16.60;77.30;;;;;;5038688;28;20120;-90
2023/06/10 06:19:11;;;;;;;266.67;255.35;;;16.60;77.50;;;;;;5027405;28;20064;-90
2023/06/10 06:21:37;;;;;;;194.95;187.13;;;16.70;77.60;;;;;;5035007;28;20691;-90
2023/06/10 06:24:03;;;;;;;223.32;214.10;;;16.70;76.60;;;;;;5038367;28;20033;-90
2023/06/10 06:26:28;;;;;;;266.73;255.65;;;16.90;76.50;;;;;;5021400;28;20404;-90
2023/06/10 06:28:54;;;;;;;237.38;227.52;;;17.00;76.60;;;;;;5018863;28;20029;-90
2023/06/10 06:31:20;;;;;;;310.00;296.38;;;17.20;76.20;;;;;;5037107;28;20050;-89
2023/06/10 06:33:47;;;;;;;309.55;296.27;;;17.20;75.30;;;;;;5033903;28;20511;-89
2023/06/10 06:36:12;;;;;;;264.63;253.60;;;17.30;75.00;;;;;;5036937;28;20033;-89
2023/06/10 06:38:38;;;;;;;256.88;246.15;;;17.50;74.60;;;;;;5024602;28;20124;-89
2023/06/10 06:41:06;;;;;;;265.65;254.63;;;17.50;74.10;;;;;;5036245;28;20033;-89
2023/06/10 06:43:32;;;;;;;381.30;363.90;;;17.70;74.30;;;;;;5041259;28;20112;-88
2023/06/10 06:45:58;;;;;;;360.23;345.00;;;17.90;73.80;;;;;;5043399;28;20115;-89
2023/06/10 06:48:23;;;;;;;218.88;210.15;;;18.00;74.50;;;;;;5033909;28;20048;-92
2023/06/10 06:50:49;;;;;;;283.92;271.85;;;18.00;72.70;;;;;;5042441;28;20096;-90
2023/06/10 06:53:15;;;;;;;247.23;237.73;;;18.10;72.80;;;;;;5021992;28;20129;-89
2023/06/10 06:55:40;;;;;;;273.55;262.65;;;18.20;72.70;;;;;;5037731;28;20111;-89
2023/06/10 06:58:06;;;;;;;228.88;219.95;;;18.40;72.60;;;;;;5039587;28;20034;-89
2023/06/10 07:00:32;;;;;;;220.05;211.15;;;18.50;71.10;;;;;;5034022;28;20032;-90
2023/06/10 07:02:58;;;;;;;303.80;290.58;;;18.50;70.90;;;;;;5042120;28;20053;-90
2023/06/10 07:05:27;;;;;;;220.93;212.13;;;18.60;70.90;;;;;;5038005;28;20026;-89
2023/06/10 07:07:54;;;;;;;212.23;203.55;;;18.80;70.10;;;;;;5036453;28;20034;-89
2023/06/10 07:10:24;;;;;;;328.80;313.98;;;19.00;69.60;;;;;;5023469;28;20639;-91
2023/06/10 07:12:50;;;;;;;243.95;233.77;;;18.90;70.40;;;;;;5038988;28;20037;-90
2023/06/10 07:15:16;;;;;;;304.98;293.02;;;19.00;70.20;;;;;;5040502;28;20033;-90
2023/06/10 07:17:42;;;;;;;328.42;314.63;;;19.10;70.00;;;;;;5038136;28;20056;-91
2023/06/10 07:20:08;;;;;;;360.38;345.17;;;19.20;68.40;;;;;;5035720;28;20095;-91
2023/06/10 07:22:33;;;;;;;312.35;298.90;;;19.30;69.10;;;;;;5044172;28;20044;-91
2023/06/10 07:24:59;;;;;;;321.73;307.45;;;19.40;68.00;;;;;;5037925;28;20030;-89
2023/06/10 07:27:25;;;;;;;333.00;319.42;;;19.60;67.00;;;;;;5024641;28;20124;-90
2023/06/10 07:29:51;;;;;;;311.58;299.17;;;19.80;67.00;;;;;;5044528;28;20072;-89
2023/06/10 07:32:17;;;;;;;290.25;279.02;;;19.90;66.80;;;;;;5036006;28;20029;-89
2023/06/10 07:34:43;;;;;;;291.60;280.25;;;20.10;65.30;;;;;;5036671;28;20172;-90
2023/06/10 07:37:09;;;;;;;407.02;387.33;;;20.10;65.90;;;;;;5040077;28;20029;-91
2023/06/10 07:39:35;;;;;;;454.27;430.10;;;20.10;66.40;;;;;;5027155;28;20025;-91
2023/06/10 07:42:01;;;;;;;312.55;298.85;;;20.30;64.90;;;;;;5018741;28;20156;-90
2023/06/10 07:44:26;;;;;;;386.63;366.88;;;20.30;64.50;;;;;;5034045;28;20018;-90
2023/06/10 07:46:52;;;;;;;553.05;525.05;;;20.50;63.60;;;;;;5039482;28;20074;-90
2023/06/10 07:49:18;;;;;;;380.65;364.10;;;20.50;63.60;;;;;;5035842;28;20040;-89
2023/06/10 07:51:44;;;;;;;313.48;300.17;;;20.70;64.30;;;;;;5031213;28;20029;-91
2023/06/10 07:54:12;;;;;;;454.75;433.05;;;20.70;61.50;;;;;;5014778;28;20059;-89
2023/06/10 07:56:37;;;;;;;605.28;575.40;;;20.90;61.70;;;;;;5028876;28;20033;-91
2023/06/10 07:59:03;;;;;;;713.60;673.78;;;20.80;62.30;;;;;;5030280;28;20033;-91
2023/06/10 08:01:30;;;;;;;664.65;629.47;;;21.00;61.90;;;;;;5032067;28;20060;-88
2023/06/10 08:03:55;;;;;;;678.55;642.70;;;21.00;61.50;;;;;;5034222;28;20060;-90
2023/06/10 08:06:21;;;;;;;715.78;677.42;;;21.10;61.40;;;;;;5029598;28;20056;-89
2023/06/10 08:08:47;;;;;;;833.03;778.00;;;21.00;62.20;;;;;;5033105;28;20032;-89
2023/06/10 08:11:13;;;;;;;786.05;738.92;;;21.30;61.00;;;;;;5031030;28;20568;-88
2023/06/10 08:13:39;;;;;;;804.33;756.40;;;21.40;60.20;;;;;;5031800;28;20068;-90
2023/06/10 08:16:05;;;;;;;809.15;759.55;;;21.40;58.90;;;;;;5035996;28;20495;-89
2023/06/10 08:18:31;;;;;;;845.85;791.47;;;21.40;59.00;;;;;;5034073;28;20040;-89
2023/06/10 08:20:57;;;;;;;832.58;780.47;;;21.60;59.10;;;;;;5033719;28;20048;-88
2023/06/10 08:23:23;;;;;;;844.90;792.10;;;21.70;58.50;;;;;;5033807;28;20143;-90
2023/06/10 08:25:48;;;;;;;832.38;779.70;;;21.90;59.20;;;;;;5033154;28;20053;-89
2023/06/10 08:28:14;;;;;;;916.40;851.03;;;21.90;56.20;;;;;;5012904;28;20115;-88
2023/06/10 08:30:40;;;;;;;916.53;854.90;;;22.00;55.80;;;;;;5031053;28;20061;-89
2023/06/10 08:33:05;;;;;;;921.17;858.42;;;22.00;56.50;;;;;;5033375;28;20031;-88
2023/06/10 08:35:31;;;;;;;853.83;797.05;;;22.30;58.70;;;;;;5032820;28;20029;-90
2023/06/10 08:37:57;;;;;;;927.75;864.55;;;22.30;54.70;;;;;;5030956;28;20572;-88
2023/06/10 08:40:22;;;;;;;893.80;833.83;;;22.40;55.30;;;;;;5033843;28;20037;-89
2023/06/10 08:43:01;;;;;;;882.90;824.30;;;22.80;57.90;;;;;;5032510;28;20102;-87
2023/06/10 08:45:35;;;;;;;821.10;770.03;;;22.60;54.50;;;;;;5033731;28;20037;-88
2023/06/10 08:48:04;;;;;;;806.20;757.17;;;22.70;54.10;;;;;;5055358;28;20043;-89
2023/06/10 08:50:30;;;;;;;891.40;830.17;;;22.80;53.60;;;;;;5033529;28;20026;-93
2023/06/10 08:52:58;;;;;;;926.03;860.10;;;22.80;53.80;;;;;;5035046;28;20068;-92
2023/06/10 08:55:30;;;;;;;896.58;836.67;;;22.60;54.00;;;;;;5031840;28;20037;-93
2023/06/10 08:57:56;;;;;;;909.05;847.42;;;23.20;53.40;;;;;;5033142;28;20457;-91
2023/06/10 09:00:22;;;;;;;970.50;898.42;;;23.30;51.70;;;;;;5035107;28;20032;-91
2023/06/10 09:02:49;;;;;;;978.53;905.28;;;23.20;52.10;;;;;;5029845;28;20033;-90
2023/06/10 09:05:16;;;;;;;1024.35;942.33;;;23.10;52.70;;;;;;5036866;28;20025;-92
2023/06/10 09:07:42;;;;;;;984.88;909.55;;;23.50;51.60;;;;;;5031941;28;20040;-89
2023/06/10 09:10:08;;;;;;;964.03;889.40;;;23.70;51.50;;;;;;5031490;28;20041;-90
2023/06/10 09:12:37;;;;;;;919.85;849.05;;;23.60;51.40;;;;;;5031183;28;20096;-89
2023/06/10 09:15:04;;;;;;;942.88;864.80;;;23.80;50.90;;;;;;5030299;28;20401;-90
2023/06/10 09:17:31;;;;;;;632.08;572.47;;;23.70;49.70;;;;;;5031984;28;20504;-90
2023/06/10 09:19:57;;;;;;;825.72;756.20;;;23.50;51.20;;;;;;5027634;28;20049;-91
2023/06/10 09:22:24;;;;;;;931.60;850.78;;;23.90;50.00;;;;;;5023703;28;20560;-88
2023/06/10 09:24:49;;;;;;;720.45;652.90;;;24.00;49.30;;;;;;5030708;28;20108;-92
2023/06/10 09:27:15;;;;;;;1999.90;999.90;;;23.80;50.70;;;;;;5027544;28;20573;-93
2023/06/10 09:29:50;;;;;;;747.70;680.55;;;23.70;49.60;;;;;;5027973;28;20029;-90
2023/06/10 09:32:18;;;;;;;1999.90;999.90;;;23.80;49.60;;;;;;5030643;28;20035;-88
2023/06/10 09:34:44;;;;;;;1999.90;999.90;;;23.90;49.50;;;;;;5027227;28;20366;-90
2023/06/10 09:37:12;;;;;;;1999.90;999.90;;;24.20;49.30;;;;;;5030077;28;20037;-87
2023/06/10 09:39:38;;;;;;;1999.90;999.90;;;24.10;47.70;;;;;;5043176;28;20219;-89
2023/06/10 09:42:18;;;;;;;1999.90;999.90;;;23.90;48.10;;;;;;5027326;28;20564;-87
2023/06/10 09:44:51;;;;;;;1999.90;999.90;;;24.30;47.40;;;;;;5028328;28;20049;-90
2023/06/10 09:47:23;;;;;;;1999.90;999.90;;;24.40;46.80;;;;;;5028089;28;20144;-89
2023/06/10 09:49:55;;;;;;;1999.90;999.90;;;24.60;48.10;;;;;;5027887;28;20033;-89
2023/06/10 09:52:24;;;;;;;1999.90;999.90;;;24.40;47.70;;;;;;5015458;28;20176;-87
2023/06/10 09:54:52;;;;;;;1999.90;999.90;;;24.90;44.90;;;;;;5028375;28;20036;-89
2023/06/10 09:57:18;;;;;;;1999.90;999.90;;;24.90;46.20;;;;;;5032065;28;20089;-90
2023/06/10 09:59:45;;;;;;;1999.90;999.90;;;24.80;45.10;;;;;;5036655;28;20062;-89
2023/06/10 10:02:17;;;;;;;1999.90;999.90;;;24.80;46.40;;;;;;5028815;28;20042;-91
2023/06/10 10:04:43;;;;;;;1999.90;999.90;;;24.90;44.60;;;;;;5030388;28;20056;-89
2023/06/10 10:07:10;;;;;;;1999.90;999.90;;;25.30;45.80;;;;;;5032529;28;20057;-92
2023/06/10 10:09:37;;;;;;;1999.90;999.90;;;25.60;44.90;;;;;;5032403;28;20099;-81
2023/06/10 10:12:08;;;;;;;1999.90;999.90;;;25.80;44.20;;;;;;5034014;28;20033;-81
2023/06/10 10:14:35;;;;;;;1999.90;999.90;;;25.50;42.40;;;;;;5039842;28;20059;-90
2023/06/10 10:17:04;;;;;;;1999.90;999.90;;;25.60;42.40;;;;;;5032700;28;20073;-84
2023/06/10 10:19:32;;;;;;;1999.90;999.90;;;25.50;42.80;;;;;;5036681;28;20030;-86
2023/06/10 10:22:09;;;;;;;1999.90;999.90;;;25.80;42.80;;;;;;5030638;28;20188;-83
2023/06/10 10:24:41;;;;;;;1999.90;999.90;;;25.10;41.20;;;;;;5028773;28;20473;-83
2023/06/10 10:27:15;;;;;;;1999.90;999.90;;;24.40;44.10;;;;;;5031553;28;20034;-83
2023/06/10 10:29:45;;;;;;;1999.90;999.90;;;25.00;44.50;;;;;;5039025;28;20029;-85
2023/06/10 10:32:13;;;;;;;1999.90;999.90;;;25.60;43.20;;;;;;5032901;28;20033;-85
2023/06/10 10:35:17;;;;;;;1999.90;999.90;;;26.10;41.30;;;;;;5031727;28;20026;-84
2023/06/10 10:37:43;;;;;;;1999.90;999.90;;;26.70;39.50;;;;;;5034205;28;20044;-84
2023/06/10 10:40:10;;;;;;;1999.90;999.90;;;27.10;41.60;;;;;;5038885;28;20051;-83
2023/06/10 10:42:36;;;;;;;1999.90;999.90;;;26.20;40.40;;;;;;5035042;28;20060;-85
2023/06/10 10:45:02;;;;;;;1999.90;999.90;;;26.30;38.20;;;;;;5039738;28;20029;-84
2023/06/10 10:47:30;;;;;;;1999.90;999.90;;;25.70;43.10;;;;;;5044080;28;20523;-84
2023/06/10 10:49:59;;;;;;;1999.90;999.90;;;25.80;39.50;;;;;;5024759;28;20033;-84
2023/06/10 10:52:41;;;;;;;1999.90;999.90;;;25.60;42.30;;;;;;5044737;28;20480;-85
2023/06/10 10:55:12;;;;;;;1999.90;999.90;;;25.80;38.70;;;;;;5040278;28;20036;-85
2023/06/10 10:57:39;;;;;;;1999.90;999.90;;;26.80;38.90;;;;;;5044346;28;20163;-84
2023/06/10 11:00:06;;;;;;;1999.90;999.90;;;27.70;35.80;;;;;;5041202;28;20052;-83
2023/06/10 11:02:38;;;;;;;1999.90;999.90;;;27.60;35.60;;;;;;5041423;28;20037;-85
2023/06/10 11:05:05;;;;;;;1999.90;999.90;;;28.90;35.60;;;;;;5040946;28;20111;-84
2023/06/10 11:07:32;;;;;;;1999.90;999.90;;;28.50;35.70;;;;;;5032131;28;20517;-84
2023/06/10 11:10:02;;;;;;;1999.90;999.90;;;27.10;36.30;;;;;;5034094;28;20037;-84
2023/06/10 11:12:54;;;;;;;1999.90;999.90;;;26.90;38.00;;;;;;5034753;28;20676;-84
2023/06/10 11:15:23;;;;;;;1999.90;999.90;;;27.90;35.20;;;;;;5032607;28;20096;-85
2023/06/10 11:18:11;;;;;;;1999.90;999.90;;;27.40;35.20;;;;;;5017599;28;20121;-84
2023/06/10 11:20:49;;;;;;;1999.90;999.90;;;27.80;37.60;;;;;;5036490;28;20073;-84
2023/06/10 11:23:27;;;;;;;1999.90;999.90;;;26.80;34.90;;;;;;5028081;28;20447;-84
2023/06/10 11:26:14;;;;;;;1999.90;999.90;;;27.00;35.90;;;;;;5029733;28;20040;-84
2023/06/10 11:29:02;;;;;;;1999.90;999.90;;;27.80;32.70;;;;;;5035566;28;20037;-83
2023/06/10 11:31:33;;;;;;;1999.90;999.90;;;26.50;34.80;;;;;;5034934;28;20120;-85
2023/06/10 11:34:04;;;;;;;1999.90;999.90;;;25.20;38.10;;;;;;5039200;28;20025;-84
2023/06/10 11:36:31;;;;;;;1999.90;999.90;;;25.00;40.70;;;;;;5030980;28;20032;-85
2023/06/10 11:39:06;;;;;;;1999.90;999.90;;;27.50;37.90;;;;;;5035740;28;20029;-85
2023/06/10 11:41:33;;;;;;;1999.90;999.90;;;29.00;33.70;;;;;;5035172;28;20418;-84
2023/06/10 11:44:04;;;;;;;1999.90;999.90;;;28.30;32.80;;;;;;5037316;28;20476;-84
2023/06/10 11:46:30;;;;;;;1999.90;999.90;;;28.50;33.30;;;;;;5044104;28;20504;-85
2023/06/10 11:48:57;;;;;;;1999.90;999.90;;;27.90;32.00;;;;;;5037745;28;20148;-86
2023/06/10 11:51:27;;;;;;;1999.90;999.90;;;28.10;32.60;;;;;;5037398;28;20028;-84
2023/06/10 11:53:54;;;;;;;1999.90;999.90;;;27.60;34.90;;;;;;5038847;28;20451;-85
2023/06/10 11:56:21;;;;;;;1999.90;999.90;;;29.00;33.60;;;;;;5036264;28;20045;-85
2023/06/10 11:59:12;;;;;;;1999.90;999.90;;;30.00;30.80;;;;;;5037568;28;20075;-84
2023/06/10 12:01:43;;;;;;;1999.90;999.90;;;28.10;31.10;;;;;;5031517;28;20047;-86
2023/06/10 12:04:13;;;;;;;1999.90;999.90;;;28.00;32.40;;;;;;5035463;28;20060;-86
2023/06/10 12:06:39;;;;;;;1999.90;999.90;;;28.60;32.40;;;;;;5030640;28;20400;-84
2023/06/10 12:09:07;;;;;;;1999.90;999.90;;;28.70;31.50;;;;;;5034737;28;20040;-84